weather station
Area: 10056 km2
The highest point: Plechý (1378 m.s.l.)
Total stations: 27
Stations online: 23
Stations offline: 4
Current weather
3°C

Meteorological map - weather stations in Jihočeský

. The meteorological maps show weather information from WARIO weather stations

Weather stations Jihočeský

 UpdatesNameStatusTemperatureHumidityWind speedWind direction
18.2.2020 09:21Předmíř-40.0 °C %7.6 m/s SE
18.2.2020 09:22Bělčice3.0 °C92.6 %3.8 m/s S
18.2.2020 09:22Borovany5.3 °C75.8 %3.5 m/s W
18.2.2020 09:22Třeboň5.7 °C70.7 %4.5 m/s N
18.2.2020 09:21Litvínovice - Mokré4.6 °C77.7 %3.4 m/s W
18.2.2020 09:21Chrášťovice4.5 °C78.9 %2.6 m/s W
10.2.2020 19:23Dubenec6.0 °C52.1 %3.7 m/s W
18.2.2020 09:21České Budějovice - Haklovy Dvory5.9 °C80.3 %2.7 m/s S
18.2.2020 09:21Jindřichův Hradec6.3 °C70.3 %0.0 m/s W
18.2.2020 09:22Kadov3.5 °C77.3 %5.6 m/s NE
18.2.2020 09:06České Budějovice7.5 °C60.6 %3.1 m/s SW
18.2.2020 09:21Vyšší Brod3.6 °C82.5 %1.0 m/s N
12.2.2020 01:16Dolní Vltavice-1.4 °C95.3 %10.4 m/s NW
18.2.2020 09:22Hluboká nad Vltavou - Zámostí5.6 °C84.9 %1.1 m/s W
18.2.2020 09:22Hluboká nad Vltavou6.0 °C69.6 %1.4 m/s E
10.1.2020 13:56Písek - Budějovické Předměstí8.2 °C75.2 %0.0 m/s NE
18.2.2020 09:21Písek - Pražské Předměstí5.5 °C69.1 %0.0 m/s W
18.2.2020 09:22Písek - Václavské Předměstí5.0 °C64.9 %2.1 m/s NW
18.2.2020 09:22Radošovice5.4 °C70.8 %3.5 m/s W
18.2.2020 09:21Rataje5.0 °C72.8 %3.5 m/s W
18.2.2020 09:22Sedlice4.1 °C78.0 %5.9 m/s NW
18.2.2020 09:21Sezimovo Ústí4.9 °C72.2 %3.9 m/s NW
18.2.2020 09:22Stachy1.6 °C88.3 %2.1 m/s W
18.2.2020 09:22Tábor3.5 °C82.4 %7.8 m/s N
18.2.2020 09:21Novosedly4.9 °C76.8 %8.4 m/s W
18.2.2020 09:22Veselí nad Lužnicí - Žíšov5.5 °C75.0 %0.0 m/s E
18.2.2020 09:18Milevsko4.5 °C77.5 %3.1 m/s W
Email notifications
Enter your email address to subscribe to notifications about news at warioweather.com. Your email address will not be used for any purpose other than sending these emails and will not be provided to any third party. The subscription can be ended at any time.
All data are only indicative. The portal administrator has no responsibility for potentially incorrect data and related consequences. Publishing or further sharing of content from www.warioweather.com is only allowed with written consent from WANET s.r.o.